sensor_id;sensor_type;location;lat;lon;timestamp;temperature;humidity
49679;DHT22;35570;48.218;16.326;2023-09-18T00:00:46;22.00;95.80
49679;DHT22;35570;48.218;16.326;2023-09-18T00:03:18;21.90;95.80
49679;DHT22;35570;48.218;16.326;2023-09-18T00:05:46;21.90;95.70
49679;DHT22;35570;48.218;16.326;2023-09-18T00:08:13;21.90;95.70
49679;DHT22;35570;48.218;16.326;2023-09-18T00:10:39;21.90;95.40
49679;DHT22;35570;48.218;16.326;2023-09-18T00:13:05;21.90;96.20
49679;DHT22;35570;48.218;16.326;2023-09-18T00:15:31;21.90;96.20
49679;DHT22;35570;48.218;16.326;2023-09-18T00:17:56;21.90;96.40
49679;DHT22;35570;48.218;16.326;2023-09-18T00:20:22;21.90;96.20
49679;DHT22;35570;48.218;16.326;2023-09-18T00:22:53;21.90;96.20
49679;DHT22;35570;48.218;16.326;2023-09-18T00:25:19;21.90;96.00
49679;DHT22;35570;48.218;16.326;2023-09-18T00:27:44;21.90;95.90
49679;DHT22;35570;48.218;16.326;2023-09-18T00:30:10;21.90;95.80
49679;DHT22;35570;48.218;16.326;2023-09-18T00:32:37;21.80;96.30
49679;DHT22;35570;48.218;16.326;2023-09-18T00:35:02;21.80;96.30
49679;DHT22;35570;48.218;16.326;2023-09-18T00:37:29;21.70;96.10
49679;DHT22;35570;48.218;16.326;2023-09-18T00:39:54;21.70;96.30
49679;DHT22;35570;48.218;16.326;2023-09-18T00:42:20;22.30;99.90
49679;DHT22;35570;48.218;16.326;2023-09-18T00:44:48;21.60;96.70
49679;DHT22;35570;48.218;16.326;2023-09-18T00:47:14;21.60;97.00
49679;DHT22;35570;48.218;16.326;2023-09-18T00:49:42;21.60;96.90
49679;DHT22;35570;48.218;16.326;2023-09-18T00:52:09;21.70;96.80
49679;DHT22;35570;48.218;16.326;2023-09-18T00:54:37;21.70;96.60
49679;DHT22;35570;48.218;16.326;2023-09-18T00:57:04;21.60;96.40
49679;DHT22;35570;48.218;16.326;2023-09-18T00:59:30;21.50;97.00
49679;DHT22;35570;48.218;16.326;2023-09-18T01:01:56;21.40;97.10
49679;DHT22;35570;48.218;16.326;2023-09-18T01:04:22;21.40;97.20
49679;DHT22;35570;48.218;16.326;2023-09-18T01:06:51;21.40;97.60
49679;DHT22;35570;48.218;16.326;2023-09-18T01:09:18;21.50;97.50
49679;DHT22;35570;48.218;16.326;2023-09-18T01:12:10;21.50;97.40
49679;DHT22;35570;48.218;16.326;2023-09-18T01:17:16;21.50;97.20
49679;DHT22;35570;48.218;16.326;2023-09-18T01:19:46;21.40;96.80
49679;DHT22;35570;48.218;16.326;2023-09-18T01:22:17;21.30;97.40
49679;DHT22;35570;48.218;16.326;2023-09-18T01:24:44;21.30;97.20
49679;DHT22;35570;48.218;16.326;2023-09-18T01:27:15;21.30;97.80
49679;DHT22;35570;48.218;16.326;2023-09-18T01:29:43;21.30;97.40
49679;DHT22;35570;48.218;16.326;2023-09-18T01:32:08;21.30;97.20
49679;DHT22;35570;48.218;16.326;2023-09-18T01:34:48;21.20;97.50
49679;DHT22;35570;48.218;16.326;2023-09-18T01:37:17;21.20;98.10
49679;DHT22;35570;48.218;16.326;2023-09-18T01:39:44;21.30;98.30
49679;DHT22;35570;48.218;16.326;2023-09-18T01:42:11;21.20;97.60
49679;DHT22;35570;48.218;16.326;2023-09-18T01:44:37;21.20;97.70
49679;DHT22;35570;48.218;16.326;2023-09-18T01:47:06;21.20;97.60
49679;DHT22;35570;48.218;16.326;2023-09-18T01:49:34;21.20;97.70
49679;DHT22;35570;48.218;16.326;2023-09-18T01:52:00;21.20;98.00
49679;DHT22;35570;48.218;16.326;2023-09-18T01:54:26;21.20;97.60
49679;DHT22;35570;48.218;16.326;2023-09-18T01:56:55;21.10;98.00
49679;DHT22;35570;48.218;16.326;2023-09-18T01:59:21;21.10;97.60
49679;DHT22;35570;48.218;16.326;2023-09-18T02:01:47;21.00;97.60
49679;DHT22;35570;48.218;16.326;2023-09-18T02:04:13;21.00;97.60
49679;DHT22;35570;48.218;16.326;2023-09-18T02:06:38;20.90;98.10
49679;DHT22;35570;48.218;16.326;2023-09-18T02:09:05;21.00;98.20
49679;DHT22;35570;48.218;16.326;2023-09-18T02:11:34;20.90;98.00
49679;DHT22;35570;48.218;16.326;2023-09-18T02:14:00;20.90;97.90
49679;DHT22;35570;48.218;16.326;2023-09-18T02:16:30;20.90;98.10
49679;DHT22;35570;48.218;16.326;2023-09-18T02:18:55;20.90;98.50
49679;DHT22;35570;48.218;16.326;2023-09-18T02:21:22;20.90;98.50
49679;DHT22;35570;48.218;16.326;2023-09-18T02:23:52;20.90;98.20
49679;DHT22;35570;48.218;16.326;2023-09-18T02:26:18;20.80;98.30
49679;DHT22;35570;48.218;16.326;2023-09-18T02:28:44;20.80;98.60
49679;DHT22;35570;48.218;16.326;2023-09-18T02:31:10;20.80;98.20
49679;DHT22;35570;48.218;16.326;2023-09-18T02:33:40;20.80;98.60
49679;DHT22;35570;48.218;16.326;2023-09-18T02:36:06;20.80;98.50
49679;DHT22;35570;48.218;16.326;2023-09-18T02:38:33;20.80;98.20
49679;DHT22;35570;48.218;16.326;2023-09-18T02:40:59;20.80;98.80
49679;DHT22;35570;48.218;16.326;2023-09-18T02:43:25;20.80;98.70
49679;DHT22;35570;48.218;16.326;2023-09-18T02:45:51;20.80;98.60
49679;DHT22;35570;48.218;16.326;2023-09-18T02:48:17;20.80;98.90
49679;DHT22;35570;48.218;16.326;2023-09-18T02:50:43;20.70;98.70
49679;DHT22;35570;48.218;16.326;2023-09-18T02:55:46;20.70;99.20
49679;DHT22;35570;48.218;16.326;2023-09-18T02:58:12;20.70;98.90
49679;DHT22;35570;48.218;16.326;2023-09-18T03:00:42;20.60;99.10
49679;DHT22;35570;48.218;16.326;2023-09-18T03:03:09;20.60;99.10
49679;DHT22;35570;48.218;16.326;2023-09-18T03:05:34;20.60;99.80
49679;DHT22;35570;48.218;16.326;2023-09-18T03:08:00;20.70;99.50
49679;DHT22;35570;48.218;16.326;2023-09-18T03:10:26;20.70;99.60
49679;DHT22;35570;48.218;16.326;2023-09-18T03:12:51;20.70;99.50
49679;DHT22;35570;48.218;16.326;2023-09-18T03:15:17;20.70;99.30
49679;DHT22;35570;48.218;16.326;2023-09-18T03:17:42;20.70;99.30
49679;DHT22;35570;48.218;16.326;2023-09-18T03:20:08;20.70;99.50
49679;DHT22;35570;48.218;16.326;2023-09-18T03:22:35;20.70;99.50
49679;DHT22;35570;48.218;16.326;2023-09-18T03:25:00;20.60;99.80
49679;DHT22;35570;48.218;16.326;2023-09-18T03:27:26;20.60;99.80
49679;DHT22;35570;48.218;16.326;2023-09-18T03:29:55;20.60;99.90
49679;DHT22;35570;48.218;16.326;2023-09-18T03:32:21;20.60;99.90
49679;DHT22;35570;48.218;16.326;2023-09-18T03:34:46;20.60;99.90
49679;DHT22;35570;48.218;16.326;2023-09-18T03:37:12;20.70;99.90
49679;DHT22;35570;48.218;16.326;2023-09-18T03:39:37;20.70;99.90
49679;DHT22;35570;48.218;16.326;2023-09-18T03:42:03;20.80;99.90
49679;DHT22;35570;48.218;16.326;2023-09-18T03:44:29;20.80;99.70
49679;DHT22;35570;48.218;16.326;2023-09-18T03:46:54;20.90;99.80
49679;DHT22;35570;48.218;16.326;2023-09-18T03:49:20;20.90;99.70
49679;DHT22;35570;48.218;16.326;2023-09-18T03:51:46;20.90;99.50
49679;DHT22;35570;48.218;16.326;2023-09-18T03:54:11;20.90;99.60
49679;DHT22;35570;48.218;16.326;2023-09-18T03:56:37;20.90;99.60
49679;DHT22;35570;48.218;16.326;2023-09-18T03:59:03;20.90;99.80
49679;DHT22;35570;48.218;16.326;2023-09-18T04:01:30;20.90;99.80
49679;DHT22;35570;48.218;16.326;2023-09-18T04:03:56;20.90;99.60
49679;DHT22;35570;48.218;16.326;2023-09-18T04:06:22;20.90;99.50
49679;DHT22;35570;48.218;16.326;2023-09-18T04:08:50;20.90;99.70
49679;DHT22;35570;48.218;16.326;2023-09-18T04:11:17;20.80;99.90
49679;DHT22;35570;48.218;16.326;2023-09-18T04:13:44;20.80;99.80
49679;DHT22;35570;48.218;16.326;2023-09-18T04:16:09;20.70;99.90
49679;DHT22;35570;48.218;16.326;2023-09-18T04:18:39;20.70;99.90
49679;DHT22;35570;48.218;16.326;2023-09-18T04:21:04;20.70;99.90
49679;DHT22;35570;48.218;16.326;2023-09-18T04:23:30;20.60;99.90
49679;DHT22;35570;48.218;16.326;2023-09-18T04:25:56;20.60;99.90
49679;DHT22;35570;48.218;16.326;2023-09-18T04:28:23;20.60;99.90
49679;DHT22;35570;48.218;16.326;2023-09-18T04:30:49;20.50;99.90
49679;DHT22;35570;48.218;16.326;2023-09-18T04:33:15;20.50;99.90
49679;DHT22;35570;48.218;16.326;2023-09-18T04:35:41;20.50;99.90
49679;DHT22;35570;48.218;16.326;2023-09-18T04:38:07;20.50;99.90
49679;DHT22;35570;48.218;16.326;2023-09-18T04:40:34;20.40;99.90
49679;DHT22;35570;48.218;16.326;2023-09-18T04:43:00;20.40;99.90
49679;DHT22;35570;48.218;16.326;2023-09-18T04:45:26;20.40;99.90
49679;DHT22;35570;48.218;16.326;2023-09-18T04:47:55;20.40;99.90
49679;DHT22;35570;48.218;16.326;2023-09-18T04:50:20;20.40;99.90
49679;DHT22;35570;48.218;16.326;2023-09-18T04:52:46;20.40;99.90
49679;DHT22;35570;48.218;16.326;2023-09-18T04:55:13;20.40;99.90
49679;DHT22;35570;48.218;16.326;2023-09-18T04:57:39;20.40;99.90
49679;DHT22;35570;48.218;16.326;2023-09-18T05:00:06;20.40;99.90
49679;DHT22;35570;48.218;16.326;2023-09-18T05:02:38;20.40;99.90
49679;DHT22;35570;48.218;16.326;2023-09-18T05:05:04;20.40;99.90
49679;DHT22;35570;48.218;16.326;2023-09-18T05:07:30;20.40;99.90
49679;DHT22;35570;48.218;16.326;2023-09-18T05:09:56;20.50;99.90
49679;DHT22;35570;48.218;16.326;2023-09-18T05:12:22;20.50;99.90
49679;DHT22;35570;48.218;16.326;2023-09-18T05:14:48;20.70;99.90
49679;DHT22;35570;48.218;16.326;2023-09-18T05:17:16;20.60;99.90
49679;DHT22;35570;48.218;16.326;2023-09-18T05:19:42;20.70;99.90
49679;DHT22;35570;48.218;16.326;2023-09-18T05:22:11;20.70;99.90
49679;DHT22;35570;48.218;16.326;2023-09-18T05:24:40;20.70;99.90
49679;DHT22;35570;48.218;16.326;2023-09-18T05:27:05;20.80;99.90
49679;DHT22;35570;48.218;16.326;2023-09-18T05:29:33;20.80;99.90
49679;DHT22;35570;48.218;16.326;2023-09-18T05:31:59;20.90;99.90
49679;DHT22;35570;48.218;16.326;2023-09-18T05:34:24;20.90;99.90
49679;DHT22;35570;48.218;16.326;2023-09-18T05:36:50;20.80;99.90
49679;DHT22;35570;48.218;16.326;2023-09-18T05:39:16;20.90;99.90
49679;DHT22;35570;48.218;16.326;2023-09-18T05:41:42;21.30;99.90
49679;DHT22;35570;48.218;16.326;2023-09-18T05:44:07;21.30;99.90
49679;DHT22;35570;48.218;16.326;2023-09-18T05:46:36;21.20;99.90
49679;DHT22;35570;48.218;16.326;2023-09-18T05:49:03;21.20;99.90
49679;DHT22;35570;48.218;16.326;2023-09-18T05:51:30;21.20;99.90
49679;DHT22;35570;48.218;16.326;2023-09-18T05:53:55;21.50;99.90
49679;DHT22;35570;48.218;16.326;2023-09-18T05:56:21;21.20;99.90
49679;DHT22;35570;48.218;16.326;2023-09-18T05:58:49;21.40;99.90
49679;DHT22;35570;48.218;16.326;2023-09-18T06:01:15;21.30;99.90
49679;DHT22;35570;48.218;16.326;2023-09-18T06:03:40;21.50;99.90
49679;DHT22;35570;48.218;16.326;2023-09-18T06:06:06;21.40;99.90
49679;DHT22;35570;48.218;16.326;2023-09-18T06:08:32;21.50;99.90
49679;DHT22;35570;48.218;16.326;2023-09-18T06:10:58;21.60;99.90
49679;DHT22;35570;48.218;16.326;2023-09-18T06:13:24;21.50;99.90
49679;DHT22;35570;48.218;16.326;2023-09-18T06:15:51;21.70;99.90
49679;DHT22;35570;48.218;16.326;2023-09-18T06:18:18;21.90;99.90
49679;DHT22;35570;48.218;16.326;2023-09-18T06:20:46;21.90;99.90
49679;DHT22;35570;48.218;16.326;2023-09-18T06:23:12;22.00;99.50
49679;DHT22;35570;48.218;16.326;2023-09-18T06:25:38;22.10;99.10
49679;DHT22;35570;48.218;16.326;2023-09-18T06:28:04;22.10;99.20
49679;DHT22;35570;48.218;16.326;2023-09-18T06:30:31;22.20;99.10
49679;DHT22;35570;48.218;16.326;2023-09-18T06:35:24;22.50;98.30
49679;DHT22;35570;48.218;16.326;2023-09-18T06:40:16;22.90;97.80
49679;DHT22;35570;48.218;16.326;2023-09-18T06:42:41;23.00;97.50
49679;DHT22;35570;48.218;16.326;2023-09-18T06:45:08;23.10;97.40
49679;DHT22;35570;48.218;16.326;2023-09-18T06:47:34;23.20;97.50
49679;DHT22;35570;48.218;16.326;2023-09-18T06:49:59;23.10;97.50
49679;DHT22;35570;48.218;16.326;2023-09-18T06:52:26;23.20;97.30
49679;DHT22;35570;48.218;16.326;2023-09-18T06:54:53;23.10;97.50
49679;DHT22;35570;48.218;16.326;2023-09-18T06:57:19;23.10;97.20
49679;DHT22;35570;48.218;16.326;2023-09-18T06:59:47;23.10;97.20
49679;DHT22;35570;48.218;16.326;2023-09-18T07:02:13;23.10;97.10
49679;DHT22;35570;48.218;16.326;2023-09-18T07:04:42;23.10;97.40
49679;DHT22;35570;48.218;16.326;2023-09-18T07:07:14;23.10;97.60
49679;DHT22;35570;48.218;16.326;2023-09-18T07:09:43;23.10;97.30
49679;DHT22;35570;48.218;16.326;2023-09-18T07:12:09;23.20;97.50
49679;DHT22;35570;48.218;16.326;2023-09-18T07:14:36;23.20;97.10
49679;DHT22;35570;48.218;16.326;2023-09-18T07:17:03;23.20;97.10
49679;DHT22;35570;48.218;16.326;2023-09-18T07:19:29;23.40;97.30
49679;DHT22;35570;48.218;16.326;2023-09-18T07:21:55;23.40;97.10
49679;DHT22;35570;48.218;16.326;2023-09-18T07:24:20;23.50;97.30
49679;DHT22;35570;48.218;16.326;2023-09-18T07:26:48;23.60;96.60
49679;DHT22;35570;48.218;16.326;2023-09-18T07:29:14;23.80;99.90
49679;DHT22;35570;48.218;16.326;2023-09-18T07:31:41;23.80;99.90
49679;DHT22;35570;48.218;16.326;2023-09-18T07:34:07;23.90;97.80
49679;DHT22;35570;48.218;16.326;2023-09-18T07:36:33;23.90;95.80
49679;DHT22;35570;48.218;16.326;2023-09-18T07:38:58;23.90;96.10
49679;DHT22;35570;48.218;16.326;2023-09-18T07:41:24;23.90;95.90
49679;DHT22;35570;48.218;16.326;2023-09-18T07:43:50;23.90;95.90
49679;DHT22;35570;48.218;16.326;2023-09-18T07:46:16;24.00;96.20
49679;DHT22;35570;48.218;16.326;2023-09-18T07:48:42;24.00;96.40
49679;DHT22;35570;48.218;16.326;2023-09-18T07:58:31;24.20;94.80
49679;DHT22;35570;48.218;16.326;2023-09-18T08:00:59;24.50;96.70
49679;DHT22;35570;48.218;16.326;2023-09-18T08:03:25;24.30;95.00
49679;DHT22;35570;48.218;16.326;2023-09-18T08:05:52;24.40;94.90
49679;DHT22;35570;48.218;16.326;2023-09-18T08:08:19;24.50;94.90
49679;DHT22;35570;48.218;16.326;2023-09-18T08:13:15;24.80;93.90
49679;DHT22;35570;48.218;16.326;2023-09-18T08:15:41;24.90;93.90
49679;DHT22;35570;48.218;16.326;2023-09-18T08:18:07;24.90;93.80
49679;DHT22;35570;48.218;16.326;2023-09-18T08:20:33;25.00;93.60
49679;DHT22;35570;48.218;16.326;2023-09-18T08:22:59;25.00;93.50
49679;DHT22;35570;48.218;16.326;2023-09-18T08:25:31;25.10;93.60
49679;DHT22;35570;48.218;16.326;2023-09-18T08:30:23;25.50;97.50
49679;DHT22;35570;48.218;16.326;2023-09-18T08:32:49;25.50;97.60
49679;DHT22;35570;48.218;16.326;2023-09-18T08:35:15;25.60;97.50
49679;DHT22;35570;48.218;16.326;2023-09-18T08:37:41;25.50;97.40
49679;DHT22;35570;48.218;16.326;2023-09-18T08:40:09;25.40;97.50
49679;DHT22;35570;48.218;16.326;2023-09-18T08:42:38;25.40;97.50
49679;DHT22;35570;48.218;16.326;2023-09-18T08:45:08;25.40;97.60
49679;DHT22;35570;48.218;16.326;2023-09-18T08:47:35;25.50;97.30
49679;DHT22;35570;48.218;16.326;2023-09-18T08:50:03;25.60;97.00
49679;DHT22;35570;48.218;16.326;2023-09-18T08:52:30;25.70;99.20
49679;DHT22;35570;48.218;16.326;2023-09-18T08:54:56;25.70;92.10
49679;DHT22;35570;48.218;16.326;2023-09-18T08:57:23;25.80;91.50
49679;DHT22;35570;48.218;16.326;2023-09-18T08:59:50;26.20;99.90
49679;DHT22;35570;48.218;16.326;2023-09-18T09:04:44;26.30;99.90
49679;DHT22;35570;48.218;16.326;2023-09-18T09:07:09;26.50;95.30
49679;DHT22;35570;48.218;16.326;2023-09-18T09:09:35;26.50;95.40
49679;DHT22;35570;48.218;16.326;2023-09-18T09:12:01;26.60;96.80
49679;DHT22;35570;48.218;16.326;2023-09-18T09:24:43;26.90;85.80
49679;DHT22;35570;48.218;16.326;2023-09-18T09:27:10;27.20;86.90
49679;DHT22;35570;48.218;16.326;2023-09-18T09:29:36;27.20;85.70
49679;DHT22;35570;48.218;16.326;2023-09-18T09:32:18;27.30;83.60
49679;DHT22;35570;48.218;16.326;2023-09-18T09:34:45;27.60;83.80
49679;DHT22;35570;48.218;16.326;2023-09-18T09:37:12;27.80;84.00
49679;DHT22;35570;48.218;16.326;2023-09-18T09:39:51;28.20;88.50
49679;DHT22;35570;48.218;16.326;2023-09-18T09:42:18;28.00;87.30
49679;DHT22;35570;48.218;16.326;2023-09-18T09:45:02;27.90;87.20
49679;DHT22;35570;48.218;16.326;2023-09-18T09:47:35;28.00;86.30
49679;DHT22;35570;48.218;16.326;2023-09-18T09:50:13;28.10;80.10
49679;DHT22;35570;48.218;16.326;2023-09-18T09:52:49;28.20;80.20
49679;DHT22;35570;48.218;16.326;2023-09-18T09:55:20;28.10;79.00
49679;DHT22;35570;48.218;16.326;2023-09-18T09:57:56;28.10;79.80
49679;DHT22;35570;48.218;16.326;2023-09-18T10:00:26;27.90;79.70
49679;DHT22;35570;48.218;16.326;2023-09-18T10:03:00;28.00;80.00
49679;DHT22;35570;48.218;16.326;2023-09-18T10:05:30;27.80;80.30
49679;DHT22;35570;48.218;16.326;2023-09-18T10:08:02;27.60;80.40
49679;DHT22;35570;48.218;16.326;2023-09-18T10:10:38;27.60;80.50
49679;DHT22;35570;48.218;16.326;2023-09-18T10:13:10;27.60;81.00
49679;DHT22;35570;48.218;16.326;2023-09-18T10:15:38;27.90;81.30
49679;DHT22;35570;48.218;16.326;2023-09-18T10:18:16;28.30;79.20
49679;DHT22;35570;48.218;16.326;2023-09-18T10:20:44;28.40;78.40
49679;DHT22;35570;48.218;16.326;2023-09-18T10:23:38;28.50;76.90
49679;DHT22;35570;48.218;16.326;2023-09-18T10:26:10;28.60;78.10
49679;DHT22;35570;48.218;16.326;2023-09-18T10:28:39;28.90;77.30
49679;DHT22;35570;48.218;16.326;2023-09-18T10:31:05;29.10;76.10
49679;DHT22;35570;48.218;16.326;2023-09-18T10:33:33;29.30;74.60
49679;DHT22;35570;48.218;16.326;2023-09-18T10:36:00;29.20;74.70
49679;DHT22;35570;48.218;16.326;2023-09-18T10:38:27;29.00;74.60
49679;DHT22;35570;48.218;16.326;2023-09-18T10:40:54;28.80;75.70
49679;DHT22;35570;48.218;16.326;2023-09-18T10:43:21;28.90;75.10
49679;DHT22;35570;48.218;16.326;2023-09-18T10:45:47;29.20;74.70
49679;DHT22;35570;48.218;16.326;2023-09-18T10:48:14;29.60;74.20
49679;DHT22;35570;48.218;16.326;2023-09-18T10:50:42;30.00;71.90
49679;DHT22;35570;48.218;16.326;2023-09-18T10:53:08;30.20;72.20
49679;DHT22;35570;48.218;16.326;2023-09-18T10:58:01;30.50;69.90
49679;DHT22;35570;48.218;16.326;2023-09-18T11:00:29;30.70;68.70
49679;DHT22;35570;48.218;16.326;2023-09-18T11:03:22;30.90;68.90
49679;DHT22;35570;48.218;16.326;2023-09-18T11:05:49;31.00;65.80
49679;DHT22;35570;48.218;16.326;2023-09-18T11:09:00;31.00;66.70
49679;DHT22;35570;48.218;16.326;2023-09-18T11:11:30;31.00;66.00
49679;DHT22;35570;48.218;16.326;2023-09-18T11:13:58;30.70;66.00
49679;DHT22;35570;48.218;16.326;2023-09-18T11:19:08;30.40;66.10
49679;DHT22;35570;48.218;16.326;2023-09-18T11:21:35;30.10;67.10
49679;DHT22;35570;48.218;16.326;2023-09-18T11:24:05;30.00;67.80
49679;DHT22;35570;48.218;16.326;2023-09-18T11:26:36;29.80;67.30
49679;DHT22;35570;48.218;16.326;2023-09-18T11:29:07;29.80;68.00
49679;DHT22;35570;48.218;16.326;2023-09-18T11:32:04;29.90;67.90
49679;DHT22;35570;48.218;16.326;2023-09-18T11:34:32;29.90;66.50
49679;DHT22;35570;48.218;16.326;2023-09-18T11:37:01;29.80;67.60
49679;DHT22;35570;48.218;16.326;2023-09-18T11:42:13;30.20;66.90
49679;DHT22;35570;48.218;16.326;2023-09-18T11:44:42;30.20;66.50
49679;DHT22;35570;48.218;16.326;2023-09-18T11:47:12;30.00;66.30
49679;DHT22;35570;48.218;16.326;2023-09-18T11:49:53;29.60;67.20
49679;DHT22;35570;48.218;16.326;2023-09-18T11:52:23;29.50;67.60
49679;DHT22;35570;48.218;16.326;2023-09-18T11:54:50;29.50;68.00
49679;DHT22;35570;48.218;16.326;2023-09-18T11:57:17;29.50;67.70
49679;DHT22;35570;48.218;16.326;2023-09-18T11:59:43;29.60;67.60
49679;DHT22;35570;48.218;16.326;2023-09-18T12:02:25;29.90;67.60
49679;DHT22;35570;48.218;16.326;2023-09-18T12:04:54;30.00;66.80
49679;DHT22;35570;48.218;16.326;2023-09-18T12:07:19;30.30;66.60
49679;DHT22;35570;48.218;16.326;2023-09-18T12:09:45;30.70;66.60
49679;DHT22;35570;48.218;16.326;2023-09-18T12:12:11;30.90;64.80
49679;DHT22;35570;48.218;16.326;2023-09-18T12:14:40;31.00;65.00
49679;DHT22;35570;48.218;16.326;2023-09-18T12:17:08;31.00;64.50
49679;DHT22;35570;48.218;16.326;2023-09-18T12:19:34;31.00;65.10
49679;DHT22;35570;48.218;16.326;2023-09-18T12:22:01;31.30;63.50
49679;DHT22;35570;48.218;16.326;2023-09-18T12:24:27;31.50;63.60
49679;DHT22;35570;48.218;16.326;2023-09-18T12:26:55;32.70;90.40
49679;DHT22;35570;48.218;16.326;2023-09-18T12:29:22;32.20;89.10
49679;DHT22;35570;48.218;16.326;2023-09-18T12:31:49;32.20;88.60
49679;DHT22;35570;48.218;16.326;2023-09-18T12:34:19;32.30;88.20
49679;DHT22;35570;48.218;16.326;2023-09-18T12:36:50;32.30;90.30
49679;DHT22;35570;48.218;16.326;2023-09-18T12:39:17;32.30;89.70
49679;DHT22;35570;48.218;16.326;2023-09-18T12:41:47;32.30;89.60
49679;DHT22;35570;48.218;16.326;2023-09-18T12:44:13;32.20;83.20
49679;DHT22;35570;48.218;16.326;2023-09-18T12:46:41;32.30;61.10
49679;DHT22;35570;48.218;16.326;2023-09-18T12:49:19;32.50;59.80
49679;DHT22;35570;48.218;16.326;2023-09-18T12:51:57;32.30;59.50
49679;DHT22;35570;48.218;16.326;2023-09-18T12:54:44;32.30;60.40
49679;DHT22;35570;48.218;16.326;2023-09-18T12:57:19;32.00;60.60
49679;DHT22;35570;48.218;16.326;2023-09-18T12:59:46;32.20;60.70
49679;DHT22;35570;48.218;16.326;2023-09-18T13:02:18;32.00;59.40
49679;DHT22;35570;48.218;16.326;2023-09-18T13:04:52;31.80;60.70
49679;DHT22;35570;48.218;16.326;2023-09-18T13:07:18;31.60;60.80
49679;DHT22;35570;48.218;16.326;2023-09-18T13:10:01;31.70;61.40
49679;DHT22;35570;48.218;16.326;2023-09-18T13:12:46;31.90;61.50
49679;DHT22;35570;48.218;16.326;2023-09-18T13:15:11;32.00;60.90
49679;DHT22;35570;48.218;16.326;2023-09-18T13:17:45;31.90;61.00
49679;DHT22;35570;48.218;16.326;2023-09-18T13:20:20;31.90;61.80
49679;DHT22;35570;48.218;16.326;2023-09-18T13:22:50;31.90;61.60
49679;DHT22;35570;48.218;16.326;2023-09-18T13:25:23;32.00;61.60
49679;DHT22;35570;48.218;16.326;2023-09-18T13:27:50;32.20;60.40
49679;DHT22;35570;48.218;16.326;2023-09-18T13:30:16;32.30;60.70
49679;DHT22;35570;48.218;16.326;2023-09-18T13:32:47;32.40;59.90
49679;DHT22;35570;48.218;16.326;2023-09-18T13:35:16;32.40;60.40
49679;DHT22;35570;48.218;16.326;2023-09-18T13:37:43;32.30;60.20
49679;DHT22;35570;48.218;16.326;2023-09-18T13:40:09;32.10;60.50
49679;DHT22;35570;48.218;16.326;2023-09-18T13:42:36;31.80;61.00
49679;DHT22;35570;48.218;16.326;2023-09-18T13:45:02;31.50;60.80
49679;DHT22;35570;48.218;16.326;2023-09-18T13:47:32;31.40;61.50
49679;DHT22;35570;48.218;16.326;2023-09-18T13:49:59;31.40;62.30
49679;DHT22;35570;48.218;16.326;2023-09-18T13:52:26;31.50;63.00
49679;DHT22;35570;48.218;16.326;2023-09-18T13:54:52;31.60;61.20
49679;DHT22;35570;48.218;16.326;2023-09-18T13:57:18;31.50;61.10
49679;DHT22;35570;48.218;16.326;2023-09-18T13:59:45;31.30;61.50
49679;DHT22;35570;48.218;16.326;2023-09-18T14:02:12;31.30;61.50
49679;DHT22;35570;48.218;16.326;2023-09-18T14:04:38;31.30;62.30
49679;DHT22;35570;48.218;16.326;2023-09-18T14:07:05;31.10;62.10
49679;DHT22;35570;48.218;16.326;2023-09-18T14:09:30;31.00;62.50
49679;DHT22;35570;48.218;16.326;2023-09-18T14:11:57;30.90;62.80
49679;DHT22;35570;48.218;16.326;2023-09-18T14:14:23;31.00;62.60
49679;DHT22;35570;48.218;16.326;2023-09-18T14:16:49;30.90;62.00
49679;DHT22;35570;48.218;16.326;2023-09-18T14:19:19;30.70;62.10
49679;DHT22;35570;48.218;16.326;2023-09-18T14:21:45;30.50;63.10
49679;DHT22;35570;48.218;16.326;2023-09-18T14:24:11;30.50;63.50
49679;DHT22;35570;48.218;16.326;2023-09-18T14:26:37;30.60;63.30
49679;DHT22;35570;48.218;16.326;2023-09-18T14:29:12;30.60;63.50
49679;DHT22;35570;48.218;16.326;2023-09-18T14:31:39;30.50;63.10
49679;DHT22;35570;48.218;16.326;2023-09-18T14:34:05;30.50;63.90
49679;DHT22;35570;48.218;16.326;2023-09-18T14:36:32;30.50;63.40
49679;DHT22;35570;48.218;16.326;2023-09-18T14:39:02;30.40;63.70
49679;DHT22;35570;48.218;16.326;2023-09-18T14:41:28;30.10;64.50
49679;DHT22;35570;48.218;16.326;2023-09-18T14:43:57;29.80;64.80
49679;DHT22;35570;48.218;16.326;2023-09-18T14:46:24;29.60;65.60
49679;DHT22;35570;48.218;16.326;2023-09-18T14:48:51;29.50;66.00
49679;DHT22;35570;48.218;16.326;2023-09-18T14:51:17;29.30;66.40
49679;DHT22;35570;48.218;16.326;2023-09-18T14:53:44;29.10;66.90
49679;DHT22;35570;48.218;16.326;2023-09-18T14:56:10;29.10;68.00
49679;DHT22;35570;48.218;16.326;2023-09-18T14:58:36;29.10;67.10
49679;DHT22;35570;48.218;16.326;2023-09-18T15:01:02;29.20;67.00
49679;DHT22;35570;48.218;16.326;2023-09-18T15:03:28;29.30;66.50
49679;DHT22;35570;48.218;16.326;2023-09-18T15:05:55;29.50;67.00
49679;DHT22;35570;48.218;16.326;2023-09-18T15:08:21;29.60;66.90
49679;DHT22;35570;48.218;16.326;2023-09-18T15:10:47;29.70;66.20
49679;DHT22;35570;48.218;16.326;2023-09-18T15:13:14;29.60;66.40
49679;DHT22;35570;48.218;16.326;2023-09-18T15:15:41;29.60;66.40
49679;DHT22;35570;48.218;16.326;2023-09-18T15:18:08;29.50;66.70
49679;DHT22;35570;48.218;16.326;2023-09-18T15:20:34;29.30;67.00
49679;DHT22;35570;48.218;16.326;2023-09-18T15:23:01;29.20;67.90
49679;DHT22;35570;48.218;16.326;2023-09-18T15:25:27;29.20;67.60
49679;DHT22;35570;48.218;16.326;2023-09-18T15:27:54;29.10;67.60
49679;DHT22;35570;48.218;16.326;2023-09-18T15:30:21;29.00;68.50
49679;DHT22;35570;48.218;16.326;2023-09-18T15:35:17;28.70;68.10
49679;DHT22;35570;48.218;16.326;2023-09-18T15:37:43;28.60;69.60
49679;DHT22;35570;48.218;16.326;2023-09-18T15:40:10;28.60;69.70
49679;DHT22;35570;48.218;16.326;2023-09-18T15:42:39;28.50;70.20
49679;DHT22;35570;48.218;16.326;2023-09-18T15:45:07;28.40;70.40
49679;DHT22;35570;48.218;16.326;2023-09-18T15:50:02;28.00;70.80
49679;DHT22;35570;48.218;16.326;2023-09-18T15:52:31;27.80;72.10
49679;DHT22;35570;48.218;16.326;2023-09-18T15:54:58;27.70;72.10
49679;DHT22;35570;48.218;16.326;2023-09-18T15:57:34;27.50;72.90
49679;DHT22;35570;48.218;16.326;2023-09-18T16:00:02;27.30;74.00
49679;DHT22;35570;48.218;16.326;2023-09-18T16:02:35;27.20;74.30
49679;DHT22;35570;48.218;16.326;2023-09-18T16:05:02;27.20;75.50
49679;DHT22;35570;48.218;16.326;2023-09-18T16:07:33;27.20;74.80